createdAt,value
2018-06-10T00:01:37.371Z,5.20
2018-06-10T00:06:39.519Z,4.70
2018-06-10T00:11:41.692Z,4.17
2018-06-10T00:16:43.844Z,4.40
2018-06-10T00:21:45.970Z,4.47
2018-06-10T00:26:48.117Z,4.60
2018-06-10T00:31:50.586Z,4.30
2018-06-10T00:36:52.769Z,4.57
2018-06-10T00:41:54.913Z,5.07
2018-06-10T00:46:57.084Z,5.00
2018-06-10T00:51:59.294Z,4.70
2018-06-10T00:57:01.467Z,5.23
2018-06-10T01:02:03.591Z,5.20
2018-06-10T01:07:05.718Z,4.97
2018-06-10T01:12:07.898Z,4.50
2018-06-10T01:17:10.098Z,5.13
2018-06-10T01:22:12.207Z,5.10
2018-06-10T01:27:14.376Z,5.17
2018-06-10T01:32:16.514Z,6.60
2018-06-10T01:37:18.648Z,5.90
2018-06-10T01:42:20.788Z,6.37
2018-06-10T01:47:22.975Z,6.10
2018-06-10T01:52:25.143Z,6.87
2018-06-10T01:57:27.304Z,6.30
2018-06-10T02:02:29.441Z,6.47
2018-06-10T02:07:31.570Z,7.10
2018-06-10T02:12:33.710Z,7.37
2018-06-10T02:17:35.863Z,6.87
2018-06-10T02:22:38.014Z,8.00
2018-06-10T02:27:40.173Z,7.90
2018-06-10T02:32:42.320Z,7.77
2018-06-10T02:37:44.425Z,8.53
2018-06-10T02:42:46.702Z,8.10
2018-06-10T02:47:48.884Z,7.37
2018-06-10T02:52:51.053Z,8.50
2018-06-10T02:57:53.211Z,8.40
2018-06-10T03:02:55.347Z,10.20
2018-06-10T03:07:57.532Z,9.27
2018-06-10T03:12:59.665Z,8.80
2018-06-10T03:18:01.825Z,11.00
2018-06-10T03:23:04.068Z,12.37
2018-06-10T03:28:06.212Z,16.60
2018-06-10T03:33:08.360Z,11.50
2018-06-10T03:38:10.506Z,15.70
2018-06-10T03:43:12.651Z,18.03
2018-06-10T03:48:14.811Z,14.53
2018-06-10T03:53:16.956Z,18.33
2018-06-10T03:58:19.070Z,13.53
2018-06-10T04:03:21.191Z,15.40
2018-06-10T04:08:23.347Z,16.40
2018-06-10T04:13:25.471Z,15.57
2018-06-10T04:18:27.611Z,12.37
2018-06-10T04:23:29.726Z,12.60
2018-06-10T04:28:31.878Z,12.63
2018-06-10T04:33:33.978Z,12.90
2018-06-10T04:38:36.106Z,9.73
2018-06-10T04:43:38.237Z,10.27
2018-06-10T04:48:40.387Z,10.37
2018-06-10T04:53:42.548Z,9.07
2018-06-10T04:58:44.702Z,11.23
2018-06-10T05:03:46.851Z,9.30
2018-06-10T05:08:48.977Z,10.57
2018-06-10T05:13:51.133Z,9.60
2018-06-10T05:18:53.289Z,9.60
2018-06-10T05:23:55.469Z,7.23
2018-06-10T05:28:57.597Z,8.03
2018-06-10T05:34:00.052Z,6.50
2018-06-10T05:39:02.269Z,8.13
2018-06-10T05:44:04.723Z,5.80
2018-06-10T05:49:06.842Z,4.80
2018-06-10T05:54:09.011Z,4.93
2018-06-10T05:59:11.153Z,4.70
2018-06-10T06:04:13.294Z,4.17
2018-06-10T06:09:15.447Z,4.90
2018-06-10T06:14:17.613Z,4.50
2018-06-10T06:19:19.755Z,3.90
2018-06-10T06:24:21.929Z,4.00
2018-06-10T06:29:24.103Z,4.13
2018-06-10T06:34:26.217Z,4.43
2018-06-10T06:39:28.380Z,4.40
2018-06-10T06:44:30.544Z,4.10
2018-06-10T06:49:32.671Z,4.90
2018-06-10T06:54:34.876Z,4.27
2018-06-10T06:59:37.050Z,4.00
2018-06-10T07:04:39.208Z,4.03
2018-06-10T07:09:41.376Z,3.50
2018-06-10T07:14:43.569Z,4.57
2018-06-10T07:19:46.416Z,4.90
2018-06-10T07:24:49.327Z,3.80
2018-06-10T07:29:52.533Z,3.70
2018-06-10T07:34:55.441Z,2.90
2018-06-10T07:39:58.160Z,3.23
2018-06-10T07:45:01.217Z,4.40
2018-06-10T07:50:04.247Z,3.10
2018-06-10T07:55:07.830Z,3.27
2018-06-10T08:00:10.769Z,3.47
2018-06-10T08:05:14.493Z,3.63
2018-06-10T08:10:17.295Z,3.47
2018-06-10T08:15:20.063Z,3.93
2018-06-10T08:20:22.354Z,3.90
2018-06-10T08:25:25.847Z,4.00
2018-06-10T08:30:29.363Z,3.97
2018-06-10T08:35:32.798Z,4.13
2018-06-10T08:40:35.835Z,3.67
2018-06-10T08:45:39.293Z,3.50
2018-06-10T08:50:42.777Z,3.80
2018-06-10T08:55:46.479Z,3.73
2018-06-10T09:00:49.256Z,4.20
2018-06-10T09:05:51.998Z,3.53
2018-06-10T09:10:54.220Z,3.67
2018-06-10T09:15:56.458Z,4.30
2018-06-10T09:20:58.604Z,4.20
2018-06-10T09:26:00.768Z,4.13
2018-06-10T09:31:02.963Z,3.63
2018-06-10T09:36:05.127Z,3.23
2018-06-10T09:41:07.289Z,3.23
2018-06-10T09:46:09.464Z,3.70
2018-06-10T09:51:11.576Z,5.03
2018-06-10T09:56:13.774Z,5.70
2018-06-10T10:01:16.005Z,7.00
2018-06-10T10:06:18.182Z,6.20
2018-06-10T10:11:20.327Z,7.67
2018-06-10T10:16:22.521Z,8.30
2018-06-10T10:21:24.679Z,6.00
2018-06-10T10:26:26.860Z,7.27
2018-06-10T10:31:29.044Z,7.13
2018-06-10T10:36:31.205Z,5.53
2018-06-10T10:41:33.414Z,6.40
2018-06-10T10:46:35.585Z,6.20
2018-06-10T10:51:37.760Z,6.90
2018-06-10T10:56:39.961Z,7.40
2018-06-10T11:01:42.190Z,7.57
2018-06-10T11:06:44.388Z,7.30
2018-06-10T11:11:46.551Z,6.50
2018-06-10T11:16:48.802Z,6.23
2018-06-10T11:21:50.995Z,6.93
2018-06-10T11:26:53.172Z,7.40
2018-06-10T11:31:55.370Z,7.63
2018-06-10T11:36:57.563Z,7.13
2018-06-10T11:41:59.727Z,8.30
2018-06-10T11:47:02.368Z,7.30
2018-06-10T11:52:04.608Z,8.23
2018-06-10T11:57:06.896Z,8.67
2018-06-10T12:02:09.105Z,7.90
2018-06-10T12:07:11.301Z,8.40
2018-06-10T12:12:13.533Z,7.93
2018-06-10T12:17:15.822Z,8.43
2018-06-10T12:22:18.024Z,9.00
2018-06-10T12:27:20.229Z,6.77
2018-06-10T12:32:22.408Z,7.83
2018-06-10T12:37:24.584Z,6.23
2018-06-10T12:42:26.850Z,6.10
2018-06-10T12:47:29.040Z,6.50
2018-06-10T12:52:31.226Z,6.07
2018-06-10T12:57:33.468Z,5.93
2018-06-10T13:02:35.658Z,7.30
2018-06-10T13:07:37.835Z,6.10
2018-06-10T13:12:40.044Z,6.50
2018-06-10T13:17:42.258Z,6.97
2018-06-10T13:22:44.485Z,6.07
2018-06-10T13:27:46.641Z,6.40
2018-06-10T13:32:48.870Z,6.87
2018-06-10T13:37:51.041Z,7.10
2018-06-10T13:42:53.243Z,7.10
2018-06-10T13:47:55.443Z,6.27
2018-06-10T13:52:57.611Z,7.70
2018-06-10T13:57:59.853Z,6.50
2018-06-10T14:03:02.040Z,7.30
2018-06-10T14:08:04.312Z,8.23
2018-06-10T14:13:06.497Z,7.60
2018-06-10T14:18:08.757Z,8.10
2018-06-10T14:23:11.001Z,7.73
2018-06-10T14:28:13.160Z,7.63
2018-06-10T14:33:15.731Z,7.37
2018-06-10T14:38:17.962Z,7.33
2018-06-10T14:43:20.275Z,7.40
2018-06-10T14:48:22.633Z,8.73
2018-06-10T14:53:24.868Z,7.03
2018-06-10T14:58:27.084Z,7.63
2018-06-10T15:03:29.362Z,9.27
2018-06-10T15:08:31.584Z,9.23
2018-06-10T15:13:33.871Z,8.03
2018-06-10T15:18:36.092Z,8.20
2018-06-10T15:23:38.273Z,9.20
2018-06-10T15:28:40.480Z,9.80
2018-06-10T15:33:42.954Z,8.20
2018-06-10T15:38:45.179Z,9.23
2018-06-10T15:43:47.379Z,8.80
2018-06-10T15:48:49.636Z,8.50
2018-06-10T15:53:51.877Z,8.03
2018-06-10T15:58:54.118Z,9.57
2018-06-10T16:03:56.352Z,8.90
2018-06-10T16:08:58.519Z,9.17
2018-06-10T16:14:00.713Z,9.43
2018-06-10T16:19:02.972Z,8.40
2018-06-10T16:24:05.149Z,8.50
2018-06-10T16:29:07.380Z,7.80
2018-06-10T16:34:09.617Z,7.70
2018-06-10T16:39:11.854Z,9.03
2018-06-10T16:44:14.137Z,10.40
2018-06-10T16:49:16.423Z,9.20
2018-06-10T16:54:18.629Z,10.43
2018-06-10T16:59:20.890Z,10.50
2018-06-10T17:04:23.093Z,9.40
2018-06-10T17:09:25.263Z,9.77
2018-06-10T17:14:27.491Z,8.40
2018-06-10T17:19:29.712Z,8.70
2018-06-10T17:24:32.266Z,9.27
2018-06-10T17:29:34.464Z,10.00
2018-06-10T17:34:36.718Z,11.27
2018-06-10T17:39:38.902Z,9.30
2018-06-10T17:44:41.169Z,9.60
2018-06-10T17:49:43.361Z,9.83
2018-06-10T17:54:45.602Z,10.27
2018-06-10T17:59:47.924Z,11.57
2018-06-10T18:04:50.178Z,9.40
2018-06-10T18:09:52.383Z,9.90
2018-06-10T18:14:54.686Z,9.50
2018-06-10T18:19:56.959Z,10.33
2018-06-10T18:24:59.145Z,9.63
2018-06-10T18:30:01.409Z,9.77
2018-06-10T18:35:04.269Z,10.17
2018-06-10T18:40:06.496Z,10.03
2018-06-10T18:45:08.729Z,9.37
2018-06-10T18:50:10.944Z,9.03
2018-06-10T18:55:13.165Z,10.53
2018-06-10T19:00:15.490Z,10.60
2018-06-10T19:05:17.710Z,10.90
2018-06-10T19:10:19.952Z,11.73
2018-06-10T19:15:22.432Z,11.60
2018-06-10T19:20:24.723Z,12.53
2018-06-10T19:25:28.115Z,13.77
2018-06-10T19:30:32.778Z,13.63
2018-06-10T19:35:35.228Z,13.07
2018-06-10T19:40:37.565Z,12.70
2018-06-10T19:45:39.778Z,13.37
2018-06-10T19:50:42.402Z,13.57
2018-06-10T19:55:45.500Z,12.07
2018-06-10T20:00:47.905Z,13.07
2018-06-10T20:05:50.186Z,14.73
2018-06-10T20:10:52.431Z,12.70
2018-06-10T20:15:54.695Z,12.60
2018-06-10T20:20:56.934Z,11.43
2018-06-10T20:25:59.184Z,11.50
2018-06-10T20:31:01.478Z,12.37
2018-06-10T20:36:03.897Z,11.20
2018-06-10T20:41:06.096Z,11.90
2018-06-10T20:46:08.340Z,10.60
2018-06-10T20:51:10.560Z,11.67
2018-06-10T20:56:12.806Z,11.87
2018-06-10T21:01:15.055Z,11.93
2018-06-10T21:06:17.306Z,11.50
2018-06-10T21:11:19.536Z,11.37
2018-06-10T21:16:21.741Z,11.93
2018-06-10T21:21:24.389Z,12.20
2018-06-10T21:26:26.603Z,10.60
2018-06-10T21:31:28.733Z,11.00
2018-06-10T21:36:30.945Z,10.30
2018-06-10T21:41:33.205Z,9.23
2018-06-10T21:46:35.344Z,9.47
2018-06-10T21:51:37.504Z,10.33
2018-06-10T21:56:39.680Z,8.77
2018-06-10T22:01:41.977Z,8.50
2018-06-10T22:06:44.185Z,8.83
2018-06-10T22:11:46.412Z,8.57
2018-06-10T22:16:48.600Z,9.60
2018-06-10T22:21:50.737Z,9.73
2018-06-10T22:26:53.722Z,9.10
2018-06-10T22:31:55.919Z,9.10
2018-06-10T22:36:58.072Z,9.50
2018-06-10T22:42:00.213Z,9.30
2018-06-10T22:47:02.419Z,10.00
2018-06-10T22:52:04.776Z,10.60
2018-06-10T22:57:07.345Z,10.10
2018-06-10T23:02:09.944Z,10.43
2018-06-10T23:07:12.171Z,9.70
2018-06-10T23:12:14.300Z,10.50
2018-06-10T23:17:16.443Z,9.10
2018-06-10T23:22:18.578Z,9.87
2018-06-10T23:27:20.857Z,9.17
2018-06-10T23:32:22.967Z,8.80
2018-06-10T23:37:25.127Z,9.70
2018-06-10T23:42:27.284Z,9.00
2018-06-10T23:47:29.450Z,9.20
2018-06-10T23:52:31.579Z,7.43
2018-06-10T23:57:33.728Z,8.33
